Time;durP1;ratioP1;P1;durP2;ratioP2;P2;SDS_P1;SDS_P2;PMS_P1;PMS_P2;Temp;Humidity;BMP_temperature;BMP_pressure;BME280_temperature;BME280_humidity;BME280_pressure;Samples;Min_cycle;Max_cycle;Signal;HPM_P1;HPM_P2
2021/08/07 00:00:54;;;;;;;47.10;28.55;;;13.60;89.40;;;;;;5059420;28;20055;-68
2021/08/07 00:03:21;;;;;;;54.13;32.28;;;13.60;90.20;;;;;;5061710;28;20480;-68
2021/08/07 00:05:47;;;;;;;49.20;29.10;;;13.70;90.00;;;;;;5064699;28;20110;-67
2021/08/07 00:08:14;;;;;;;45.03;27.58;;;13.70;90.10;;;;;;5058336;28;20023;-68
2021/08/07 00:10:40;;;;;;;45.05;25.98;;;13.80;90.20;;;;;;5061340;28;20036;-68
2021/08/07 00:13:07;;;;;;;41.70;25.20;;;13.70;90.20;;;;;;5066901;28;20043;-68
2021/08/07 00:15:33;;;;;;;43.28;25.42;;;13.80;90.30;;;;;;5057904;28;20028;-68
2021/08/07 00:18:00;;;;;;;37.60;24.45;;;13.80;90.60;;;;;;5059262;28;20568;-68
2021/08/07 00:20:27;;;;;;;43.45;24.95;;;13.90;90.40;;;;;;5062306;28;20503;-68
2021/08/07 00:22:53;;;;;;;42.40;23.98;;;13.90;90.50;;;;;;5059700;28;20035;-69
2021/08/07 00:25:20;;;;;;;40.33;25.98;;;13.90;90.50;;;;;;5063538;28;20049;-68
2021/08/07 00:27:47;;;;;;;45.35;24.63;;;14.00;90.60;;;;;;5060240;28;20013;-68
2021/08/07 00:30:13;;;;;;;42.75;24.55;;;13.90;90.60;;;;;;5060412;28;20025;-68
2021/08/07 00:32:41;;;;;;;45.55;25.35;;;14.00;90.70;;;;;;5062249;28;20095;-69
2021/08/07 00:35:08;;;;;;;38.97;23.17;;;14.00;90.80;;;;;;5058338;28;20036;-68
2021/08/07 00:37:35;;;;;;;41.97;25.05;;;14.00;90.90;;;;;;5060992;28;20108;-68
2021/08/07 00:40:01;;;;;;;44.28;25.85;;;14.10;91.00;;;;;;5054042;28;20028;-68
2021/08/07 00:42:28;;;;;;;40.63;23.42;;;14.10;91.10;;;;;;5060103;28;20033;-68
2021/08/07 00:44:58;;;;;;;39.92;22.50;;;14.20;91.20;;;;;;5055938;28;20056;-68
2021/08/07 00:47:25;;;;;;;43.60;24.92;;;14.20;91.20;;;;;;5058049;28;20086;-67
2021/08/07 00:49:51;;;;;;;44.28;24.98;;;14.20;91.30;;;;;;5059029;28;20099;-68
2021/08/07 00:52:18;;;;;;;41.88;25.77;;;14.20;91.40;;;;;;5052074;28;20353;-67
2021/08/07 00:54:45;;;;;;;44.08;23.95;;;14.20;91.40;;;;;;5044915;28;20571;-67
2021/08/07 00:57:11;;;;;;;47.05;25.23;;;14.20;91.50;;;;;;5044442;28;20032;-68
2021/08/07 00:59:38;;;;;;;42.20;24.98;;;14.20;91.40;;;;;;5045768;28;20025;-67
2021/08/07 01:02:11;;;;;;;44.53;22.40;;;14.30;91.60;;;;;;5045461;28;20028;-67
2021/08/07 01:05:08;;;;;;;40.47;21.27;;;14.30;91.60;;;;;;5048701;28;20078;-67
2021/08/07 01:07:53;;;;;;;46.47;22.60;;;14.30;91.60;;;;;;5046589;28;20043;-67
2021/08/07 01:10:29;;;;;;;41.17;22.00;;;14.30;91.70;;;;;;5046763;28;20036;-68
2021/08/07 01:13:01;;;;;;;36.53;22.15;;;14.30;91.90;;;;;;5047281;28;20120;-68
2021/08/07 01:15:30;;;;;;;41.13;19.17;;;14.30;91.90;;;;;;5044003;28;20040;-67
2021/08/07 01:17:59;;;;;;;38.42;20.30;;;14.30;92.00;;;;;;5047208;28;20025;-68
2021/08/07 01:20:37;;;;;;;35.90;19.92;;;14.30;92.00;;;;;;5045185;28;20021;-69
2021/08/07 01:23:15;;;;;;;33.15;19.25;;;14.30;92.00;;;;;;5045548;28;20474;-67
2021/08/07 01:26:05;;;;;;;30.23;18.55;;;14.30;91.90;;;;;;5059351;28;20499;-67
2021/08/07 01:28:35;;;;;;;34.25;19.42;;;14.30;91.80;;;;;;5045033;28;20483;-68
2021/08/07 01:31:04;;;;;;;32.80;20.55;;;14.40;91.80;;;;;;5041206;28;20430;-68
2021/08/07 01:33:31;;;;;;;34.28;18.35;;;14.40;91.80;;;;;;5048646;28;20025;-68
2021/08/07 01:35:58;;;;;;;32.83;18.55;;;14.30;91.80;;;;;;5047112;28;20025;-68
2021/08/07 01:38:25;;;;;;;32.95;19.00;;;14.30;91.90;;;;;;5047235;28;20029;-68
2021/08/07 01:40:51;;;;;;;36.08;19.83;;;14.30;91.90;;;;;;5042965;28;20391;-67
2021/08/07 01:43:18;;;;;;;34.40;18.10;;;14.30;91.90;;;;;;5049979;28;20163;-68
2021/08/07 01:45:46;;;;;;;35.97;18.15;;;14.30;91.90;;;;;;5045304;28;20025;-69
2021/08/07 01:48:28;;;;;;;32.28;17.98;;;14.30;91.80;;;;;;5046093;28;20021;-68
2021/08/07 01:51:11;;;;;;;28.00;16.50;;;14.40;91.80;;;;;;5046320;28;20025;-68
2021/08/07 01:53:39;;;;;;;30.48;18.48;;;14.30;91.70;;;;;;5048697;28;20253;-68
2021/08/07 01:56:14;;;;;;;28.00;16.73;;;14.30;91.60;;;;;;5045052;28;20472;-69
2021/08/07 01:58:48;;;;;;;26.10;15.25;;;14.30;91.70;;;;;;5044604;28;20768;-68
2021/08/07 02:01:16;;;;;;;31.15;15.50;;;14.30;91.60;;;;;;5043176;28;20472;-68
2021/08/07 02:03:44;;;;;;;27.58;15.73;;;14.30;91.60;;;;;;5046623;28;20364;-68
2021/08/07 02:06:11;;;;;;;24.13;14.50;;;14.30;91.60;;;;;;5044137;28;20107;-68
2021/08/07 02:08:40;;;;;;;28.85;17.33;;;14.30;91.70;;;;;;5044479;28;20029;-67
2021/08/07 02:11:07;;;;;;;27.17;16.27;;;14.30;91.70;;;;;;5043913;28;20124;-68
2021/08/07 02:13:34;;;;;;;28.20;16.48;;;14.30;91.90;;;;;;5044160;28;20021;-68
2021/08/07 02:16:41;;;;;;;30.42;14.60;;;14.30;91.90;;;;;;5041796;28;20032;-68
2021/08/07 02:19:47;;;;;;;22.35;14.18;;;14.20;91.80;;;;;;5043022;28;20095;-68
2021/08/07 02:22:53;;;;;;;24.38;14.68;;;14.20;91.80;;;;;;5045342;28;20029;-68
2021/08/07 02:25:59;;;;;;;21.83;12.82;;;14.20;91.70;;;;;;5047434;28;20029;-68
2021/08/07 02:29:05;;;;;;;25.92;13.90;;;14.20;91.50;;;;;;5044677;28;20107;-69
2021/08/07 02:32:11;;;;;;;22.20;14.10;;;14.20;91.50;;;;;;5043509;28;20028;-69
2021/08/07 02:35:17;;;;;;;22.05;12.75;;;14.10;91.50;;;;;;5046100;28;20104;-66
2021/08/07 02:38:23;;;;;;;22.17;12.75;;;14.20;91.60;;;;;;5049076;28;20021;-69
2021/08/07 02:41:29;;;;;;;23.13;13.40;;;14.10;91.50;;;;;;5048585;28;20053;-69
2021/08/07 02:44:35;;;;;;;21.42;13.15;;;14.10;91.60;;;;;;5046879;28;20039;-69
2021/08/07 02:47:41;;;;;;;26.33;14.35;;;14.10;91.60;;;;;;5044899;28;20044;-69
2021/08/07 02:50:48;;;;;;;21.85;13.48;;;14.10;91.70;;;;;;5048395;28;20074;-69
2021/08/07 02:53:54;;;;;;;20.88;13.88;;;14.10;91.70;;;;;;5052793;28;20503;-69
2021/08/07 02:57:00;;;;;;;20.30;13.32;;;14.10;91.60;;;;;;5060788;28;20431;-69
2021/08/07 03:00:06;;;;;;;20.42;12.88;;;14.10;91.80;;;;;;5058804;28;20890;-70
2021/08/07 03:03:12;;;;;;;19.63;12.25;;;14.10;91.70;;;;;;5054481;28;20095;-69
2021/08/07 03:06:18;;;;;;;22.98;13.48;;;14.10;91.70;;;;;;5057554;28;20025;-69
2021/08/07 03:09:24;;;;;;;20.15;12.55;;;14.00;91.70;;;;;;5057823;28;20029;-69
2021/08/07 03:12:30;;;;;;;18.52;12.30;;;14.10;91.80;;;;;;5054850;28;20084;-69
2021/08/07 03:15:36;;;;;;;57.92;39.45;;;14.00;91.40;;;;;;5059549;28;21005;-69
2021/08/07 03:18:42;;;;;;;48.05;31.63;;;14.00;91.50;;;;;;5059569;28;20016;-69
2021/08/07 03:21:48;;;;;;;24.55;15.55;;;14.00;91.40;;;;;;5058998;28;20044;-69
2021/08/07 03:24:54;;;;;;;23.48;15.05;;;14.00;91.40;;;;;;5056057;28;20021;-69
2021/08/07 03:28:01;;;;;;;24.85;13.85;;;14.00;91.50;;;;;;5055801;28;20112;-69
2021/08/07 03:31:07;;;;;;;26.80;15.55;;;14.00;91.60;;;;;;5065408;28;20121;-69
2021/08/07 03:34:13;;;;;;;29.98;17.88;;;14.00;91.60;;;;;;5053385;28;20512;-68
2021/08/07 03:37:19;;;;;;;28.70;18.10;;;14.00;91.50;;;;;;5059487;28;20028;-69
2021/08/07 03:40:26;;;;;;;28.25;18.85;;;14.00;91.40;;;;;;5054498;28;20479;-68
2021/08/07 03:43:32;;;;;;;27.50;17.17;;;14.00;91.40;;;;;;5053108;28;20082;-69
2021/08/07 03:46:35;;;;;;;25.50;16.48;;;13.90;91.30;;;;;;5058012;28;20599;-69
2021/08/07 03:49:01;;;;;;;27.80;16.48;;;13.90;91.30;;;;;;5061019;28;20031;-69
2021/08/07 03:51:28;;;;;;;24.63;16.60;;;13.90;91.30;;;;;;5058893;28;20036;-68
2021/08/07 03:53:54;;;;;;;27.40;17.55;;;13.90;91.30;;;;;;5056631;28;20082;-69
2021/08/07 03:56:21;;;;;;;30.95;18.48;;;13.80;91.20;;;;;;5058213;28;20029;-69
2021/08/07 03:58:48;;;;;;;29.58;18.65;;;13.80;91.20;;;;;;5057532;28;20104;-69
2021/08/07 04:01:15;;;;;;;25.33;16.52;;;13.80;91.30;;;;;;5057163;28;20021;-66
2021/08/07 04:03:41;;;;;;;28.85;18.67;;;13.80;91.40;;;;;;5058795;28;20084;-66
2021/08/07 04:06:09;;;;;;;29.58;18.88;;;13.80;91.40;;;;;;5060483;28;20476;-67
2021/08/07 04:08:35;;;;;;;25.60;16.08;;;13.80;91.40;;;;;;5058240;28;20021;-67
2021/08/07 04:11:41;;;;;;;24.85;16.85;;;13.80;91.30;;;;;;5053779;28;20115;-68
2021/08/07 04:14:47;;;;;;;20.02;14.23;;;13.80;91.20;;;;;;5058858;28;20492;-68
2021/08/07 04:17:53;;;;;;;18.42;12.00;;;13.80;91.00;;;;;;5060230;28;20016;-67
2021/08/07 04:20:59;;;;;;;22.35;15.43;;;13.70;90.70;;;;;;5049622;28;20067;-66
2021/08/07 04:24:05;;;;;;;50.00;33.45;;;13.70;90.80;;;;;;5049650;28;20025;-67
2021/08/07 04:27:12;;;;;;;23.60;15.82;;;13.70;90.70;;;;;;5047699;28;20056;-67
2021/08/07 04:30:18;;;;;;;23.35;14.13;;;13.70;90.40;;;;;;5047368;28;20013;-66
2021/08/07 04:33:24;;;;;;;18.90;13.27;;;13.70;90.30;;;;;;5047790;28;20025;-66
2021/08/07 04:36:30;;;;;;;20.30;14.02;;;13.60;90.30;;;;;;5046694;28;20117;-67
2021/08/07 04:38:58;;;;;;;19.60;13.27;;;13.60;90.30;;;;;;5056843;28;20763;-67
2021/08/07 04:41:24;;;;;;;25.10;13.98;;;13.60;90.40;;;;;;5038051;28;20029;-69
2021/08/07 04:43:51;;;;;;;26.40;15.20;;;13.50;90.50;;;;;;5036729;28;20025;-66
2021/08/07 04:46:17;;;;;;;27.17;16.95;;;13.50;90.60;;;;;;5034758;28;20074;-68
2021/08/07 04:48:44;;;;;;;26.60;16.05;;;13.50;90.80;;;;;;5038781;28;20013;-68
2021/08/07 04:51:10;;;;;;;28.50;17.17;;;13.50;90.90;;;;;;5034049;28;20083;-68
2021/08/07 04:53:37;;;;;;;25.33;16.65;;;13.50;91.10;;;;;;5037395;28;20045;-67
2021/08/07 04:56:04;;;;;;;23.77;14.52;;;13.40;91.10;;;;;;5036210;28;20098;-66
2021/08/07 04:58:30;;;;;;;27.17;16.98;;;13.50;91.20;;;;;;5037387;28;20080;-66
2021/08/07 05:00:57;;;;;;;32.92;15.85;;;13.50;91.20;;;;;;5034949;28;20044;-67
2021/08/07 05:03:23;;;;;;;27.30;16.63;;;13.50;91.20;;;;;;5036950;28;20037;-68
2021/08/07 05:05:50;;;;;;;22.90;13.90;;;13.50;91.20;;;;;;5034181;28;20469;-65
2021/08/07 05:08:16;;;;;;;19.42;13.68;;;13.50;91.10;;;;;;5033608;28;20381;-68
2021/08/07 05:10:43;;;;;;;37.88;23.38;;;13.50;91.00;;;;;;5035046;28;20116;-64
2021/08/07 05:13:09;;;;;;;57.40;35.58;;;13.50;91.20;;;;;;5034962;28;20013;-68
2021/08/07 05:15:36;;;;;;;29.98;19.52;;;13.50;91.20;;;;;;5034915;28;20061;-67
2021/08/07 05:18:06;;;;;;;21.95;14.40;;;13.50;91.10;;;;;;5032939;28;20086;-68
2021/08/07 05:20:35;;;;;;;22.90;14.25;;;13.50;91.00;;;;;;5038209;28;20435;-65
2021/08/07 05:23:02;;;;;;;25.13;13.90;;;13.50;91.00;;;;;;5044947;28;20100;-63
2021/08/07 05:25:29;;;;;;;22.60;15.52;;;13.40;90.90;;;;;;5044316;28;20016;-64
2021/08/07 05:27:55;;;;;;;20.25;14.40;;;13.40;90.90;;;;;;5049244;28;20013;-64
2021/08/07 05:30:22;;;;;;;20.85;13.48;;;13.40;91.00;;;;;;5045807;28;20124;-64
2021/08/07 05:33:28;;;;;;;16.83;11.15;;;13.40;91.00;;;;;;5044773;28;20017;-65
2021/08/07 05:36:34;;;;;;;35.95;22.45;;;13.40;90.90;;;;;;5046735;28;20032;-66
2021/08/07 05:39:01;;;;;;;35.50;22.83;;;13.40;91.00;;;;;;5044914;28;20013;-68
2021/08/07 05:41:27;;;;;;;26.10;18.92;;;13.40;90.90;;;;;;5046859;28;20087;-69
2021/08/07 05:43:54;;;;;;;23.83;14.95;;;13.40;90.80;;;;;;5047983;28;20040;-69
2021/08/07 05:46:20;;;;;;;17.25;10.98;;;13.40;90.80;;;;;;5046572;28;20517;-69
2021/08/07 05:48:47;;;;;;;19.23;13.02;;;13.40;90.70;;;;;;5048783;28;20108;-69
2021/08/07 05:51:14;;;;;;;19.60;12.63;;;13.30;90.70;;;;;;5063649;28;20021;-69
2021/08/07 05:53:40;;;;;;;18.80;12.95;;;13.30;90.80;;;;;;5056658;28;20387;-68
2021/08/07 05:56:06;;;;;;;16.85;11.75;;;13.30;90.70;;;;;;5048553;28;20029;-67
2021/08/07 05:58:37;;;;;;;15.95;10.10;;;13.30;90.70;;;;;;5048411;28;20471;-66
2021/08/07 06:01:07;;;;;;;18.15;11.57;;;13.30;90.60;;;;;;5048967;28;20021;-66
2021/08/07 06:03:34;;;;;;;19.27;11.63;;;13.30;90.60;;;;;;5050514;28;20035;-69
2021/08/07 06:06:01;;;;;;;13.82;10.07;;;13.20;90.50;;;;;;5047536;28;20068;-66
2021/08/07 06:08:30;;;;;;;17.40;10.90;;;13.30;90.50;;;;;;5051177;28;20112;-67
2021/08/07 06:10:58;;;;;;;20.67;11.25;;;13.20;90.50;;;;;;5056511;28;20410;-68
2021/08/07 06:13:26;;;;;;;16.10;11.20;;;13.20;90.60;;;;;;5055091;28;20042;-68
2021/08/07 06:16:32;;;;;;;19.25;11.13;;;13.20;90.60;;;;;;5053800;28;20387;-65
2021/08/07 06:19:38;;;;;;;17.40;10.82;;;13.20;90.60;;;;;;5056115;28;20682;-69
2021/08/07 06:22:05;;;;;;;15.48;10.55;;;13.20;90.50;;;;;;5049495;28;20032;-70
2021/08/07 06:24:32;;;;;;;17.55;11.88;;;13.20;90.60;;;;;;5053016;28;20881;-69
2021/08/07 06:26:59;;;;;;;18.85;12.68;;;13.20;90.60;;;;;;5055674;28;20025;-75
2021/08/07 06:29:25;;;;;;;44.85;33.13;;;13.20;90.50;;;;;;5058382;28;20037;-72
2021/08/07 06:31:52;;;;;;;82.07;56.15;;;13.20;90.70;;;;;;5056977;28;20502;-67
2021/08/07 06:34:18;;;;;;;29.38;19.90;;;13.20;90.80;;;;;;5054199;28;22205;-69
2021/08/07 06:36:45;;;;;;;19.70;13.73;;;13.20;90.70;;;;;;5052778;28;20095;-69
2021/08/07 06:39:11;;;;;;;20.52;12.68;;;13.20;90.70;;;;;;5050928;28;20017;-65
2021/08/07 06:41:38;;;;;;;21.85;12.85;;;13.20;90.80;;;;;;5057644;28;20017;-68
2021/08/07 06:44:04;;;;;;;34.42;24.08;;;13.20;90.80;;;;;;5049038;28;20020;-67
2021/08/07 06:46:31;;;;;;;36.58;24.63;;;13.20;90.80;;;;;;5054586;28;20385;-64
2021/08/07 06:48:57;;;;;;;25.55;17.52;;;13.20;90.70;;;;;;5053108;28;20021;-67
2021/08/07 06:51:24;;;;;;;23.85;14.43;;;13.20;90.80;;;;;;5057047;28;20092;-70
2021/08/07 06:53:51;;;;;;;18.00;13.82;;;13.20;90.90;;;;;;5054262;28;20508;-65
2021/08/07 06:56:18;;;;;;;21.73;13.13;;;13.30;91.00;;;;;;5052911;28;20496;-66
2021/08/07 06:58:44;;;;;;;27.13;15.32;;;13.30;90.90;;;;;;5055987;28;20070;-65
2021/08/07 07:01:11;;;;;;;21.50;12.65;;;13.30;90.90;;;;;;5053723;28;20024;-68
2021/08/07 07:03:37;;;;;;;23.30;14.38;;;13.30;90.80;;;;;;5055828;28;20025;-65
2021/08/07 07:06:05;;;;;;;19.40;14.10;;;13.30;90.70;;;;;;5053873;28;20108;-68
2021/08/07 07:08:31;;;;;;;26.65;16.30;;;13.40;90.70;;;;;;5054098;28;20013;-67
2021/08/07 07:10:58;;;;;;;29.38;17.70;;;13.40;90.60;;;;;;5052616;28;20017;-69
2021/08/07 07:13:24;;;;;;;24.80;15.52;;;13.40;90.60;;;;;;5052043;28;20025;-71
2021/08/07 07:15:51;;;;;;;24.13;15.73;;;13.40;90.60;;;;;;5053104;28;20836;-71
2021/08/07 07:18:18;;;;;;;23.05;14.98;;;13.40;90.70;;;;;;5056958;28;20057;-72
2021/08/07 07:20:44;;;;;;;25.10;16.25;;;13.40;90.50;;;;;;5047966;28;20037;-69
2021/08/07 07:23:12;;;;;;;25.95;16.98;;;13.40;90.50;;;;;;5053050;28;20104;-70
2021/08/07 07:25:39;;;;;;;23.80;16.85;;;13.40;90.40;;;;;;5047627;28;20026;-70
2021/08/07 07:28:06;;;;;;;24.15;15.98;;;13.40;90.50;;;;;;5053587;28;20020;-71
2021/08/07 07:30:32;;;;;;;26.27;17.02;;;13.40;90.60;;;;;;5056486;28;20578;-71
2021/08/07 07:32:59;;;;;;;20.88;15.38;;;13.40;90.60;;;;;;5051370;28;20430;-70
2021/08/07 07:35:26;;;;;;;24.98;16.55;;;13.40;90.70;;;;;;5057141;28;20116;-71
2021/08/07 07:37:53;;;;;;;25.50;15.93;;;13.50;90.70;;;;;;5054685;28;20521;-70
2021/08/07 07:40:19;;;;;;;37.65;24.38;;;13.50;90.70;;;;;;5056302;28;20037;-71
2021/08/07 07:42:46;;;;;;;67.97;46.90;;;13.50;90.50;;;;;;5056641;28;20027;-70
2021/08/07 07:45:52;;;;;;;33.28;22.35;;;13.60;90.40;;;;;;5047671;28;20059;-69
2021/08/07 07:48:58;;;;;;;22.73;15.35;;;13.60;90.30;;;;;;5067214;28;20030;-68
2021/08/07 07:52:04;;;;;;;28.05;16.42;;;13.50;90.30;;;;;;5057225;28;20075;-70
2021/08/07 07:55:10;;;;;;;22.08;13.88;;;13.60;90.40;;;;;;5056274;28;20086;-70
2021/08/07 07:58:16;;;;;;;24.35;15.50;;;13.50;90.40;;;;;;5046114;28;20013;-70
2021/08/07 08:01:22;;;;;;;32.13;17.27;;;13.50;90.30;;;;;;5053569;28;20024;-71
2021/08/07 08:03:49;;;;;;;61.75;41.42;;;13.50;90.50;;;;;;5052613;28;20499;-70
2021/08/07 08:06:15;;;;;;;65.95;47.13;;;13.60;90.80;;;;;;5050325;28;20040;-69
2021/08/07 08:08:42;;;;;;;30.25;21.15;;;13.60;90.80;;;;;;5051176;28;20492;-69
2021/08/07 08:11:08;;;;;;;23.65;17.25;;;13.60;90.90;;;;;;5052670;28;20021;-69
2021/08/07 08:13:35;;;;;;;22.30;14.93;;;13.70;91.10;;;;;;5049678;28;20021;-67
2021/08/07 08:16:01;;;;;;;26.17;15.68;;;13.70;90.90;;;;;;5047256;28;20021;-70
2021/08/07 08:18:28;;;;;;;26.80;16.55;;;13.70;90.80;;;;;;5051738;28;20021;-66
2021/08/07 08:20:54;;;;;;;27.90;17.27;;;13.80;90.80;;;;;;5049395;28;20083;-70
2021/08/07 08:23:21;;;;;;;32.10;17.35;;;13.70;90.40;;;;;;5050669;28;20495;-69
2021/08/07 08:25:48;;;;;;;31.80;18.95;;;13.80;90.50;;;;;;5049413;28;20029;-69
2021/08/07 08:28:15;;;;;;;34.72;17.73;;;13.80;90.60;;;;;;5051827;28;20006;-68
2021/08/07 08:30:42;;;;;;;28.40;18.00;;;13.80;90.80;;;;;;5050354;28;20032;-66
2021/08/07 08:33:09;;;;;;;26.80;18.10;;;13.80;90.60;;;;;;5049431;28;20104;-69
2021/08/07 08:35:36;;;;;;;29.25;20.13;;;13.90;90.60;;;;;;5055002;28;20045;-71
2021/08/07 08:38:03;;;;;;;29.85;19.33;;;13.90;90.50;;;;;;5056433;28;20048;-69
2021/08/07 08:40:30;;;;;;;31.63;19.98;;;13.90;90.50;;;;;;5055441;28;20028;-67
2021/08/07 08:42:56;;;;;;;33.72;19.17;;;13.90;90.40;;;;;;5051821;28;20026;-67
2021/08/07 08:45:23;;;;;;;26.90;17.90;;;13.90;90.20;;;;;;5049454;28;20025;-68
2021/08/07 08:47:49;;;;;;;27.50;18.27;;;13.90;90.20;;;;;;5047606;28;20100;-68
2021/08/07 08:50:21;;;;;;;30.00;17.73;;;14.00;90.30;;;;;;5049124;28;20060;-68
2021/08/07 08:52:52;;;;;;;29.73;18.55;;;14.00;90.20;;;;;;5051632;28;20469;-67
2021/08/07 08:55:19;;;;;;;30.52;20.23;;;14.00;90.30;;;;;;5049141;28;20052;-68
2021/08/07 08:57:45;;;;;;;35.25;22.67;;;14.10;90.30;;;;;;5049390;28;20021;-68
2021/08/07 09:00:12;;;;;;;29.65;20.52;;;14.10;90.10;;;;;;5052115;28;20591;-68
2021/08/07 09:02:39;;;;;;;34.97;23.48;;;14.20;90.20;;;;;;5049424;28;20060;-68
2021/08/07 09:05:08;;;;;;;33.05;20.63;;;14.20;90.00;;;;;;5051944;28;20136;-69
2021/08/07 09:07:34;;;;;;;34.90;20.98;;;14.30;89.60;;;;;;5051806;28;20032;-69
2021/08/07 09:10:01;;;;;;;32.10;22.40;;;14.20;89.70;;;;;;5049250;28;20074;-68
2021/08/07 09:12:44;;;;;;;35.00;21.85;;;14.30;90.00;;;;;;5052054;28;20021;-68
2021/08/07 09:15:38;;;;;;;32.90;22.10;;;14.40;90.10;;;;;;5047022;28;20108;-68
2021/08/07 09:18:14;;;;;;;34.33;24.33;;;14.40;90.00;;;;;;5051604;28;20089;-68
2021/08/07 09:20:41;;;;;;;;;;;14.50;89.90;;;;;;5048929;28;20029;-68
2021/08/07 09:23:08;;;;;;;39.97;26.92;;;14.60;90.00;;;;;;5049709;28;19932;-68
2021/08/07 09:25:36;;;;;;;44.92;27.58;;;14.60;90.10;;;;;;5048711;28;20625;-68
2021/08/07 09:28:04;;;;;;;44.70;28.85;;;14.70;90.00;;;;;;5051573;28;20025;-68
2021/08/07 09:30:39;;;;;;;42.72;26.60;;;14.70;89.70;;;;;;5054305;28;20023;-70
2021/08/07 09:33:13;;;;;;;44.13;27.88;;;14.70;89.40;;;;;;5048262;28;20021;-69
2021/08/07 09:35:45;;;;;;;50.47;29.40;;;14.80;89.50;;;;;;5058124;28;20044;-71
2021/08/07 09:38:19;;;;;;;51.10;32.70;;;14.80;89.50;;;;;;5049593;28;20086;-69
2021/08/07 09:40:54;;;;;;;69.53;33.90;;;14.90;89.50;;;;;;5051995;28;20037;-69
2021/08/07 09:43:32;;;;;;;57.83;34.00;;;14.90;89.50;;;;;;5051797;28;20021;-69
2021/08/07 09:46:08;;;;;;;51.20;32.30;;;15.00;89.50;;;;;;5043931;28;20744;-68
2021/08/07 09:48:48;;;;;;;55.17;33.70;;;15.00;89.30;;;;;;5054694;28;20029;-69
2021/08/07 09:51:19;;;;;;;63.65;36.67;;;15.00;89.10;;;;;;5046009;28;20026;-69
2021/08/07 09:53:59;;;;;;;61.67;34.83;;;15.10;88.90;;;;;;5045893;28;20054;-69
2021/08/07 09:56:51;;;;;;;64.63;35.95;;;15.10;89.10;;;;;;5055998;28;20049;-70
2021/08/07 09:59:19;;;;;;;57.90;34.70;;;15.30;89.40;;;;;;5052094;28;20098;-71
2021/08/07 10:01:47;;;;;;;51.83;33.80;;;15.30;89.40;;;;;;5055248;28;20399;-69
2021/08/07 10:04:15;;;;;;;49.20;33.17;;;15.40;89.80;;;;;;5055449;28;20491;-68
2021/08/07 10:06:43;;;;;;;46.85;31.92;;;15.50;89.00;;;;;;5047537;28;20013;-69
2021/08/07 10:09:11;;;;;;;55.25;35.58;;;15.50;88.60;;;;;;5053963;28;20028;-68
2021/08/07 10:11:39;;;;;;;55.15;35.53;;;15.60;88.20;;;;;;5046185;28;20038;-69
2021/08/07 10:14:06;;;;;;;53.55;35.05;;;15.70;87.90;;;;;;5050366;28;20024;-69
2021/08/07 10:16:34;;;;;;;59.97;36.80;;;15.80;87.70;;;;;;5058978;28;20544;-69
2021/08/07 10:19:02;;;;;;;57.70;36.05;;;15.80;87.60;;;;;;5056119;28;20033;-69
2021/08/07 10:21:29;;;;;;;56.97;35.80;;;15.90;87.60;;;;;;5048289;28;20028;-69
2021/08/07 10:23:57;;;;;;;51.53;33.85;;;16.00;87.30;;;;;;5052839;28;20557;-69
2021/08/07 10:26:27;;;;;;;50.97;34.28;;;16.10;86.70;;;;;;5048556;28;20012;-69
2021/08/07 10:28:56;;;;;;;49.50;32.22;;;16.20;86.30;;;;;;5055657;28;20025;-70
2021/08/07 10:31:26;;;;;;;55.22;34.50;;;16.30;86.50;;;;;;5049368;28;20034;-69
2021/08/07 10:34:00;;;;;;;48.97;33.25;;;16.40;86.40;;;;;;5050580;28;20021;-69
2021/08/07 10:36:27;;;;;;;49.20;33.08;;;16.60;86.20;;;;;;5050215;28;20515;-70
2021/08/07 10:38:54;;;;;;;52.30;33.80;;;16.70;86.10;;;;;;5050767;28;20039;-69
2021/08/07 10:41:22;;;;;;;47.65;31.77;;;16.80;85.70;;;;;;5045064;28;20411;-69
2021/08/07 10:43:52;;;;;;;48.85;31.90;;;16.90;85.40;;;;;;5047839;28;20025;-69
2021/08/07 10:46:19;;;;;;;49.10;31.30;;;17.00;85.10;;;;;;5055605;28;20108;-69
2021/08/07 10:48:48;;;;;;;47.42;31.73;;;17.10;84.40;;;;;;5047489;28;20010;-70
2021/08/07 10:51:24;;;;;;;47.67;29.73;;;17.20;84.00;;;;;;5044967;28;20040;-69
2021/08/07 10:53:55;;;;;;;47.50;31.98;;;17.30;83.40;;;;;;5046509;28;20057;-69
2021/08/07 10:56:41;;;;;;;50.58;34.28;;;17.40;83.20;;;;;;5052729;28;20044;-69
2021/08/07 10:59:10;;;;;;;46.63;32.40;;;17.50;82.20;;;;;;5053133;28;20025;-69
2021/08/07 11:01:38;;;;;;;51.95;32.85;;;17.60;82.40;;;;;;5052196;28;20029;-68
2021/08/07 11:04:19;;;;;;;48.95;30.98;;;17.70;81.80;;;;;;5053237;28;20446;-69
2021/08/07 11:06:48;;;;;;;51.38;32.67;;;17.80;81.50;;;;;;5052514;28;20034;-68
2021/08/07 11:09:22;;;;;;;41.47;29.30;;;17.80;81.10;;;;;;5048808;28;20591;-68
2021/08/07 11:12:10;;;;;;;48.80;31.58;;;18.00;80.60;;;;;;5055374;28;20033;-69
2021/08/07 11:14:47;;;;;;;51.50;35.40;;;18.10;80.40;;;;;;5054247;28;20472;-70
2021/08/07 11:17:13;;;;;;;46.75;30.90;;;18.20;80.10;;;;;;5051729;28;20369;-70
2021/08/07 11:20:04;;;;;;;42.88;32.05;;;18.20;79.60;;;;;;5052511;28;20025;-69
2021/08/07 11:22:37;;;;;;;47.20;31.35;;;18.30;78.70;;;;;;5052056;28;20111;-70
2021/08/07 11:25:14;;;;;;;44.20;29.10;;;18.40;77.80;;;;;;5056485;28;20040;-70
2021/08/07 11:27:55;;;;;;;43.97;29.10;;;18.50;77.70;;;;;;5051120;28;20031;-69
2021/08/07 11:30:26;;;;;;;41.53;28.67;;;18.60;77.50;;;;;;5052919;28;20378;-70
2021/08/07 11:32:58;;;;;;;42.95;27.20;;;18.70;76.20;;;;;;5055315;28;20021;-69
2021/08/07 11:35:42;;;;;;;50.28;32.35;;;18.80;76.20;;;;;;5049494;28;20040;-70
2021/08/07 11:38:25;;;;;;;45.40;28.00;;;18.90;75.80;;;;;;5048897;28;20036;-70
2021/08/07 11:40:54;;;;;;;42.20;30.08;;;19.00;74.50;;;;;;5054018;28;20036;-70
2021/08/07 11:43:21;;;;;;;43.10;29.63;;;19.10;74.40;;;;;;5045748;28;20544;-70
2021/08/07 11:46:04;;;;;;;48.35;31.83;;;19.20;74.60;;;;;;5049885;28;20053;-71
2021/08/07 11:48:48;;;;;;;42.22;29.02;;;19.20;74.30;;;;;;5056111;28;20025;-69
2021/08/07 11:51:24;;;;;;;37.83;26.50;;;19.20;74.40;;;;;;5056386;28;20021;-69
2021/08/07 11:53:51;;;;;;;41.95;27.00;;;19.30;73.20;;;;;;5052149;28;20083;-68
2021/08/07 11:56:22;;;;;;;44.00;27.95;;;19.30;73.20;;;;;;5046759;28;20056;-68
2021/08/07 11:58:50;;;;;;;44.13;28.35;;;19.30;73.20;;;;;;5048665;28;20023;-68
2021/08/07 12:01:18;;;;;;;40.83;29.15;;;19.40;73.10;;;;;;5048113;28;20025;-69
2021/08/07 12:03:50;;;;;;;37.42;26.63;;;19.50;72.80;;;;;;5052673;28;20028;-69
2021/08/07 12:06:19;;;;;;;41.47;28.33;;;19.50;71.40;;;;;;5050365;28;20643;-68
2021/08/07 12:08:47;;;;;;;46.60;29.85;;;19.40;73.60;;;;;;5046792;28;20032;-68
2021/08/07 12:11:16;;;;;;;41.53;28.17;;;19.30;75.40;;;;;;5051857;28;20606;-68
2021/08/07 12:13:49;;;;;;;43.50;28.88;;;19.30;76.00;;;;;;5048853;28;20036;-68
2021/08/07 12:16:55;;;;;;;50.03;32.15;;;19.40;76.40;;;;;;5051094;28;20025;-68
2021/08/07 12:20:01;;;;;;;58.05;35.70;;;19.30;76.30;;;;;;5040615;28;20048;-68
2021/08/07 12:23:16;;;;;;;52.10;32.00;;;19.30;75.80;;;;;;5044855;28;20029;-69
2021/08/07 12:26:22;;;;;;;66.97;36.22;;;19.30;76.00;;;;;;5053471;28;20029;-67
2021/08/07 12:29:28;;;;;;;59.95;35.72;;;19.20;75.70;;;;;;5049575;28;20025;-68
2021/08/07 12:32:38;;;;;;;53.55;33.60;;;19.20;75.90;;;;;;5049171;28;20082;-69
2021/08/07 12:35:49;;;;;;;56.53;34.45;;;19.10;76.10;;;;;;5049382;28;20064;-69
2021/08/07 12:38:55;;;;;;;50.83;32.53;;;19.00;75.90;;;;;;5050783;28;20028;-69
2021/08/07 12:42:02;;;;;;;55.63;33.10;;;19.00;76.00;;;;;;5048419;28;20033;-68
2021/08/07 12:45:17;;;;;;;54.67;33.70;;;19.00;76.00;;;;;;5048993;28;20021;-70
2021/08/07 12:47:43;;;;;;;52.80;33.28;;;19.00;76.10;;;;;;5048322;28;20545;-69
2021/08/07 12:50:30;;;;;;;53.80;34.95;;;19.00;76.00;;;;;;5047629;28;20794;-68
2021/08/07 12:53:24;;;;;;;62.28;38.58;;;19.00;75.90;;;;;;5045284;28;20044;-69
2021/08/07 12:55:52;;;;;;;51.22;33.60;;;18.90;75.90;;;;;;5051103;28;20044;-69
2021/08/07 12:58:22;;;;;;;54.35;35.15;;;18.90;76.70;;;;;;5046085;28;20022;-69
2021/08/07 13:00:49;;;;;;;51.65;32.50;;;18.90;75.70;;;;;;5053486;28;20111;-70
2021/08/07 13:03:16;;;;;;;51.63;31.65;;;18.90;76.10;;;;;;5049950;28;20471;-69
2021/08/07 13:05:43;;;;;;;49.85;31.80;;;18.80;76.00;;;;;;5056259;28;20020;-69
2021/08/07 13:08:29;;;;;;;52.03;31.08;;;18.80;76.30;;;;;;5051023;28;20074;-69
2021/08/07 13:11:14;;;;;;;53.88;33.22;;;18.80;76.40;;;;;;5049625;28;20020;-70
2021/08/07 13:13:43;;;;;;;52.63;31.45;;;18.70;76.20;;;;;;5051459;28;20563;-70
2021/08/07 13:16:09;;;;;;;45.72;30.00;;;18.70;76.40;;;;;;5046823;28;20076;-69